Relevés horaires Beauvechain (Belgique)


Relevés horaires à Beauvechain - Mardi 18 Juill. 2017
Heure UTC1 Température [°C] Vent [km/h] Hum. [%] Pres.4 [hPa] Visi. [Km] Nébu. [octa] Préc.5 [mm] Cond.
2m. Res. Ros. Dir.2 Vit. Moy. Raf.3
23:00 21.6 21.6 13.4 E 5.6 -- 7.4 60 1011.8(-0.9/3h) 20 -- -- --
22:00 21.6 21.6 13.0 ENE 5.6 -- 9.3 58 1012.5(-0.8/3h) 20 -- -- --
21:00 22.0 22.0 12.8 ENE 7.4 -- 14.8 56 1012.7(-0.8/3h) 20 -- -- --
20:00 23.6 23.6 13.0 ENE 7.4 -- 11.1 51 1012.7(-1.0/3h) 20 -- -- --
19:00 25.2 25.2 13.3 NE 7.4 -- 14.8 48 1013.1(-0.9/3h) 20 -- -- --
18:00 27.2 27.2 13.6 NE 9.3 -- 16.7 43 1013.3(-1.0/3h) 20 -- -- --
17:00 28.2 28.2 13.9 NE 11.1 -- 14.8 42 1013.6(-1.5/3h) 20 -- -- --
16:00 28.2 28.2 13.8 ENE 9.3 -- 16.7 41 1013.8(-2.1/3h) 20 1/8 -- --
15:00 28.3 28.3 13.9 ENE 9.3 11.1 16.7 41 1014.2(-2.3/3h) 20 1/8 -- --
14:00 27.8 27.8 13.6 NE 9.3 -- 14.8 42 1015.2(-2.2/3h) 20 1/8 -- --
13:00 27.2 27.2 13.8 ENE 9.3 -- 16.7 44 1016.1(-1.8/3h) 20 3/8 -- --
12:00 26.6 26.6 14.3 ENE 9.3 -- 16.7 47 1016.7(-1.8/3h) 20 3/8 -- --
11:00 25.6 25.6 14.5 ENE 9.3 -- 16.7 50 1017.6(-1.4/3h) 20 3/8 -- --
10:00 24.6 24.6 13.9 ENE 9.3 -- 14.8 51 1018.1(-1.3/3h) 15 4/8 -- --
09:00 22.4 22.4 14.8 ENE 9.3 -- 13.0 62 1018.8(-0.7/3h) 13 5/8 -- --
08:00 20.0 20.0 13.6 ENE 5.6 -- 9.3 67 1019.2(-0.6/3h) 10 5/8 -- --
07:00 17.4 17.4 12.3 NE 5.6 -- 9.3 72 1019.7(-0.3/3h) 10 6/8 -- --
06:00 15.1 15.1 11.8 ENE 3.7 -- 7.4 81 1020(-0.5/3h) 10 5/8 -- --
05:00 13.3 13.3 11.2 NNO 1.9 -- 5.6 87 1020.2(-0.7/3h) 10 3/8 -- --
04:00 13.4 13.4 10.9 NNO 3.7 -- 7.4 85 1020.3(-1.1/3h) 20 -- -- --
03:00 13.5 13.5 10.7 NE 5.6 -- 7.4 83 1020.6(-1.2/3h) 20 -- -- --
02:00 14.3 14.3 10.2 NNO 1.9 -- 3.7 76 1021.1(-0.8/3h) 20 -- -- --
01:00 14.6 14.6 10.4 NE 3.7 -- 3.7 76 1021.5(-0.5/3h) 20 -- -- --
00:00 14.6 14.6 10.5 NNO 1.9 -- 9.3 76 1021.7(-0.3/3h) 20 -- -- --

1 Coordinated Universal Time. Actuellement il est 17:00 locale et 15:00 UTC.

2 Le vent souffle depuis la direction indiquée vers la direction oposée.

3 Les rafales max. sont disponible 40 min après l'heure du relevé.

4 Pour les stations d'altitude (plus de 600m) le géopotentiel du niveau le plus proche de la pression obligatoire est indiqué.

5 Les stations disposant d'un diffuseur peuvent indiquer "trace". Cela signifie que des précipitations ont touchés le sol mais que la quantité est inférieure à 0.1 mm.

Récapitulatif de la journée
Température [°C] Vent [km/h] Ensoleillement4 [h] Precipitations totale5 [mm] Pression [Hpa]
Min1 Max.2 Moy.3 Max. Min Max.
12.8 28.7 11.1 16.7 0 h 0 min 0 1011.8 1021.7

1 Température minimale relevée entre 18:00 UTC la veille et 18:00 UTC le jour donné.

2 Température maximale relevée entre 06:00 UTC le jour donné et 06:00 UTC le lendemain.

3 Vent moyen de la journée basé sur les relevés horaires.

4 Ensoleillement en heures relevé entre 06:00 UTC la veille et 06:00 UTC le jour donné.

5 Précipitations totales tombées entre 06:00 UTC la jour donné et 06:00 UTC le lendemain.

Graphiques horaires